KGAD/GAD METAR and TAF weather

Enter ICAO airport designator
Station Type Date Time Source
KGAD METAR 2021/05/11 16:56 UTC NOAA

KGAD 111656Z AUTO VRB04KT 10SM OVC013 18/16 A3014 RMK AO2 SLP210 T01830156


Station Type Date Time Source
KGAD Decoded METAR 2021/05/11 16:56 UTC NOAA

Gadsden, Gadsden Municipal Airport, AL, United States (KGAD) 33-58N 086-05W
May 11, 2021 - 12:56 PM EDT / 2021.05.11 1656 UTC
Wind: Variable at 5 MPH (4 KT):0
Visibility: 10 mile(s):0
Sky conditions: overcast
Temperature: 64.9 F (18.3 C)
Dew Point: 60.1 F (15.6 C)
Relative Humidity: 84%
Pressure (altimeter): 30.14 in. Hg (1020 hPa)
ob: KGAD 111656Z AUTO VRB04KT 10SM OVC013 18/16 A3014 RMK AO2 SLP210 T01830156
cycle: 17

Station Type Date Time Source
KGAD TAF UTC NOAA

Error!

Example: see airport list